createdAt,value
2022-08-22T00:01:37.114Z,16.79
2022-08-22T00:02:48.773Z,18.56
2022-08-22T00:03:02.257Z,19.96
2022-08-22T00:04:36.253Z,16.79
2022-08-22T00:07:11.431Z,16.77
2022-08-22T00:10:09.096Z,16.78
2022-08-22T00:12:50.520Z,16.76
2022-08-22T00:15:47.183Z,16.75
2022-08-22T00:18:18.293Z,16.72
2022-08-22T00:20:52.691Z,16.72
2022-08-22T00:23:30.632Z,16.72
2022-08-22T00:26:21.999Z,16.73
2022-08-22T00:28:54.981Z,16.71
2022-08-22T00:31:21.732Z,16.67
2022-08-22T00:33:55.500Z,16.67
2022-08-22T00:36:34.428Z,16.66
2022-08-22T00:39:10.016Z,16.63
2022-08-22T00:41:39.411Z,16.61
2022-08-22T00:44:36.851Z,16.62
2022-08-22T00:47:19.817Z,16.60
2022-08-22T00:50:05.747Z,16.57
2022-08-22T00:53:08.858Z,16.56
2022-08-22T00:55:50.858Z,16.55
2022-08-22T00:58:38.782Z,16.52
2022-08-22T01:01:12.524Z,16.51
2022-08-22T01:03:46.601Z,16.49
2022-08-22T01:06:15.995Z,16.49
2022-08-22T01:09:08.983Z,16.47
2022-08-22T01:12:05.679Z,16.40
2022-08-22T01:14:38.367Z,16.37
2022-08-22T01:17:31.903Z,16.34
2022-08-22T01:20:30.517Z,16.35
2022-08-22T01:23:41.721Z,16.35
2022-08-22T01:26:45.952Z,16.34
2022-08-22T01:29:40.637Z,16.33
2022-08-22T01:32:30.991Z,16.32
2022-08-22T01:35:15.765Z,16.31
2022-08-22T01:37:56.274Z,16.27
2022-08-22T01:40:54.262Z,16.26
2022-08-22T01:43:59.239Z,16.23
2022-08-22T01:46:57.190Z,16.22
2022-08-22T01:49:41.995Z,16.20
2022-08-22T01:52:15.570Z,16.12
2022-08-22T01:55:03.689Z,16.08
2022-08-22T01:57:30.285Z,16.11
2022-08-22T02:00:07.885Z,16.14
2022-08-22T02:02:57.546Z,16.17
2022-08-22T02:05:37.058Z,16.17
2022-08-22T02:08:18.781Z,16.17
2022-08-22T02:11:05.945Z,16.14
2022-08-22T02:13:58.554Z,16.15
2022-08-22T02:16:31.084Z,16.14
2022-08-22T02:19:18.471Z,16.13
2022-08-22T02:21:59.772Z,16.12
2022-08-22T02:24:37.877Z,16.07
2022-08-22T02:27:23.598Z,16.05
2022-08-22T02:30:09.557Z,16.05
2022-08-22T02:33:02.927Z,16.04
2022-08-22T02:35:39.958Z,16.02
2022-08-22T02:38:19.740Z,16.04
2022-08-22T02:41:07.927Z,16.05
2022-08-22T02:43:45.128Z,16.02
2022-08-22T02:46:26.726Z,16.01
2022-08-22T02:49:09.807Z,16.02
2022-08-22T02:52:02.410Z,16.01
2022-08-22T02:54:47.612Z,16.01
2022-08-22T02:57:22.624Z,16.00
2022-08-22T03:00:25.014Z,16.01
2022-08-22T03:03:33.433Z,16.02
2022-08-22T03:06:28.076Z,16.00
2022-08-22T03:09:16.412Z,15.99
2022-08-22T03:12:01.671Z,15.99
2022-08-22T03:14:34.308Z,15.97
2022-08-22T03:17:00.739Z,15.97
2022-08-22T03:19:49.432Z,15.98
2022-08-22T03:22:33.361Z,15.98
2022-08-22T03:25:07.446Z,15.96
2022-08-22T03:28:00.198Z,15.97
2022-08-22T03:30:40.595Z,15.97
2022-08-22T03:33:28.843Z,15.97
2022-08-22T03:36:03.903Z,15.95
2022-08-22T03:38:33.276Z,15.94
2022-08-22T03:41:34.062Z,15.94
2022-08-22T03:44:38.844Z,15.95
2022-08-22T03:47:26.581Z,15.94
2022-08-22T03:50:24.402Z,15.96
2022-08-22T03:53:18.958Z,15.92
2022-08-22T03:56:04.796Z,15.91
2022-08-22T03:59:00.761Z,15.91
2022-08-22T04:01:50.443Z,15.93
2022-08-22T04:05:00.799Z,15.94
2022-08-22T04:07:52.846Z,15.94
2022-08-22T04:10:35.121Z,15.95
2022-08-22T04:13:05.659Z,15.96
2022-08-22T04:15:53.783Z,15.96
2022-08-22T04:18:23.433Z,15.95
2022-08-22T04:21:19.588Z,15.96
2022-08-22T04:24:13.317Z,15.95
2022-08-22T04:27:12.418Z,15.95
2022-08-22T04:29:45.180Z,15.93
2022-08-22T04:32:37.452Z,15.94
2022-08-22T04:35:09.612Z,15.93
2022-08-22T04:37:59.256Z,15.95
2022-08-22T04:40:34.317Z,15.94
2022-08-22T04:43:09.939Z,15.95
2022-08-22T04:45:46.160Z,15.95
2022-08-22T04:48:27.862Z,15.93
2022-08-22T04:51:18.512Z,15.94
2022-08-22T04:53:47.999Z,15.94
2022-08-22T04:56:23.974Z,15.94
2022-08-22T04:59:03.031Z,15.93
2022-08-22T05:01:46.651Z,15.93
2022-08-22T05:04:20.286Z,15.92
2022-08-22T05:06:53.657Z,15.94
2022-08-22T05:09:27.304Z,15.94
2022-08-22T05:11:58.011Z,15.97
2022-08-22T05:14:37.010Z,16.01
2022-08-22T05:17:07.535Z,16.01
2022-08-22T05:19:40.055Z,16.00
2022-08-22T05:22:14.281Z,16.01
2022-08-22T05:24:46.351Z,16.04
2022-08-22T05:27:25.710Z,16.06
2022-08-22T05:30:00.484Z,16.06
2022-08-22T05:32:37.911Z,16.08
2022-08-22T05:35:08.606Z,16.07
2022-08-22T05:37:48.563Z,16.11
2022-08-22T05:40:23.249Z,16.13
2022-08-22T05:42:50.731Z,16.14
2022-08-22T05:45:18.672Z,16.14
2022-08-22T05:47:49.621Z,16.17
2022-08-22T05:50:40.037Z,16.20
2022-08-22T05:53:12.097Z,16.20
2022-08-22T05:56:02.852Z,16.23
2022-08-22T05:58:52.212Z,16.23
2022-08-22T06:01:36.977Z,16.28
2022-08-22T06:04:44.721Z,16.31
2022-08-22T06:07:31.974Z,16.36
2022-08-22T06:10:20.640Z,16.40
2022-08-22T06:13:00.757Z,16.44
2022-08-22T06:15:40.336Z,16.50
2022-08-22T06:18:12.297Z,16.53
2022-08-22T06:20:47.932Z,16.59
2022-08-22T06:23:20.723Z,16.62
2022-08-22T06:25:51.604Z,16.66
2022-08-22T06:28:25.339Z,16.69
2022-08-22T06:30:55.628Z,16.67
2022-08-22T06:33:27.452Z,16.70
2022-08-22T06:36:25.707Z,16.76
2022-08-22T06:39:18.477Z,16.86
2022-08-22T06:41:54.451Z,16.95
2022-08-22T06:44:25.981Z,17.03
2022-08-22T06:46:55.456Z,17.10
2022-08-22T06:49:24.940Z,17.17
2022-08-22T06:51:52.334Z,17.23
2022-08-22T06:54:24.306Z,17.33
2022-08-22T06:56:52.625Z,17.40
2022-08-22T06:59:26.741Z,17.51
2022-08-22T07:02:03.310Z,17.63
2022-08-22T07:04:30.603Z,17.67
2022-08-22T07:06:59.875Z,17.71
2022-08-22T07:09:28.386Z,17.74
2022-08-22T07:11:57.607Z,17.78
2022-08-22T07:14:28.352Z,17.87
2022-08-22T07:16:59.335Z,17.94
2022-08-22T07:19:30.700Z,18.05
2022-08-22T07:21:58.591Z,18.15
2022-08-22T07:24:32.969Z,18.21
2022-08-22T07:27:08.797Z,18.34
2022-08-22T07:29:45.935Z,18.45
2022-08-22T07:32:30.876Z,18.56
2022-08-22T07:35:21.620Z,18.71
2022-08-22T07:37:58.305Z,18.79
2022-08-22T07:40:48.368Z,19.06
2022-08-22T07:43:53.972Z,19.35
2022-08-22T07:46:37.887Z,19.50
2022-08-22T07:49:23.195Z,19.65
2022-08-22T07:51:55.433Z,19.88
2022-08-22T07:54:34.858Z,20.08
2022-08-22T07:57:07.124Z,20.29
2022-08-22T07:59:37.553Z,20.55
2022-08-22T08:02:11.287Z,20.71
2022-08-22T08:04:40.697Z,20.88
2022-08-22T08:07:10.623Z,21.14
2022-08-22T08:09:42.670Z,21.25
2022-08-22T08:12:12.157Z,21.41
2022-08-22T08:14:44.012Z,21.50
2022-08-22T08:17:28.906Z,21.73
2022-08-22T08:20:02.967Z,21.82
2022-08-22T08:22:31.023Z,21.92
2022-08-22T08:25:00.375Z,22.10
2022-08-22T08:27:50.312Z,22.21
2022-08-22T08:30:23.299Z,22.27
2022-08-22T08:33:12.086Z,22.42
2022-08-22T08:36:02.482Z,22.52
2022-08-22T08:38:36.858Z,22.75
2022-08-22T08:41:39.559Z,22.76
2022-08-22T08:44:18.133Z,22.72
2022-08-22T08:47:29.415Z,22.82
2022-08-22T08:50:17.422Z,23.00
2022-08-22T08:52:53.354Z,23.26
2022-08-22T08:55:27.380Z,23.43
2022-08-22T08:58:11.907Z,23.41
2022-08-22T09:00:42.032Z,23.40
2022-08-22T09:03:15.545Z,23.60
2022-08-22T09:06:14.098Z,23.72
2022-08-22T09:09:02.012Z,23.72
2022-08-22T09:12:01.451Z,24.00
2022-08-22T09:14:33.439Z,24.20
2022-08-22T09:17:38.196Z,24.29
2022-08-22T09:20:18.059Z,24.31
2022-08-22T09:23:18.583Z,24.51
2022-08-22T09:26:25.865Z,24.75
2022-08-22T09:28:58.882Z,24.72
2022-08-22T09:34:34.101Z,25.10
2022-08-22T09:37:29.193Z,25.12
2022-08-22T09:40:24.774Z,25.45
2022-08-22T09:43:10.883Z,25.62
2022-08-22T09:45:52.488Z,25.74
2022-08-22T09:48:21.506Z,25.62
2022-08-22T09:51:04.634Z,25.86
2022-08-22T09:54:11.274Z,26.11
2022-08-22T09:57:14.423Z,26.13
2022-08-22T09:59:47.132Z,25.63
2022-08-22T10:02:50.241Z,25.39
2022-08-22T10:05:43.820Z,25.40
2022-08-22T10:08:46.046Z,25.68
2022-08-22T10:11:18.843Z,25.62
2022-08-22T10:14:07.991Z,25.81
2022-08-22T10:16:43.512Z,26.22
2022-08-22T10:19:18.152Z,26.61
2022-08-22T10:22:17.542Z,26.72
2022-08-22T10:25:15.063Z,26.63
2022-08-22T10:27:55.092Z,26.80
2022-08-22T10:30:40.913Z,26.81
2022-08-22T10:33:19.806Z,26.69
2022-08-22T10:36:13.045Z,26.69
2022-08-22T10:38:47.081Z,26.65
2022-08-22T10:41:27.867Z,26.52
2022-08-22T10:44:10.902Z,26.23
2022-08-22T10:46:43.750Z,26.39
2022-08-22T10:49:28.739Z,26.52
2022-08-22T10:52:15.703Z,26.65
2022-08-22T10:54:43.003Z,26.94
2022-08-22T10:57:24.688Z,27.39
2022-08-22T10:59:58.304Z,27.59
2022-08-22T11:02:34.722Z,27.05
2022-08-22T11:05:13.881Z,26.77
2022-08-22T11:07:53.304Z,26.52
2022-08-22T11:10:40.527Z,26.53
2022-08-22T11:13:30.919Z,26.65
2022-08-22T11:16:04.489Z,26.60
2022-08-22T11:18:40.814Z,26.69
2022-08-22T11:21:16.513Z,26.94
2022-08-22T11:23:48.787Z,27.06
2022-08-22T11:26:41.687Z,27.14
2022-08-22T11:29:23.642Z,26.97
2022-08-22T11:32:05.885Z,26.77
2022-08-22T11:34:49.375Z,26.83
2022-08-22T11:37:40.303Z,26.88
2022-08-22T11:40:54.123Z,26.98
2022-08-22T11:43:52.622Z,27.08
2022-08-22T11:46:29.738Z,27.11
2022-08-22T11:49:27.302Z,27.12
2022-08-22T11:52:31.273Z,27.59
2022-08-22T11:55:13.599Z,27.96
2022-08-22T11:57:47.835Z,28.15
2022-08-22T12:00:24.781Z,28.08
2022-08-22T12:03:14.566Z,27.73
2022-08-22T12:05:52.401Z,27.58
2022-08-22T12:08:30.856Z,27.75
2022-08-22T12:11:34.379Z,27.69
2022-08-22T12:14:06.416Z,27.61
2022-08-22T12:17:03.161Z,27.54
2022-08-22T12:20:15.114Z,27.47
2022-08-22T12:22:53.526Z,27.59
2022-08-22T12:25:56.917Z,27.53
2022-08-22T12:28:27.970Z,27.66
2022-08-22T12:31:12.858Z,28.16
2022-08-22T12:34:12.207Z,28.43
2022-08-22T12:36:58.198Z,28.57
2022-08-22T12:39:46.741Z,28.33
2022-08-22T12:42:36.611Z,27.80
2022-08-22T12:45:35.456Z,27.75
2022-08-22T12:48:36.790Z,27.51
2022-08-22T12:51:21.430Z,27.49
2022-08-22T12:54:08.524Z,27.65
2022-08-22T12:57:02.813Z,27.64
2022-08-22T12:59:38.196Z,27.45
2022-08-22T13:02:28.003Z,27.30
2022-08-22T13:05:00.110Z,26.98
2022-08-22T13:07:32.842Z,26.77
2022-08-22T13:10:21.847Z,26.69
2022-08-22T13:12:54.106Z,26.93
2022-08-22T13:15:20.633Z,27.09
2022-08-22T13:17:51.752Z,27.19
2022-08-22T13:20:27.427Z,27.16
2022-08-22T13:22:55.569Z,27.19
2022-08-22T13:25:26.127Z,27.12
2022-08-22T13:28:01.195Z,27.02
2022-08-22T13:30:37.608Z,26.97
2022-08-22T13:33:22.361Z,27.02
2022-08-22T13:36:13.607Z,27.08
2022-08-22T13:38:46.302Z,27.34
2022-08-22T13:41:18.722Z,27.36
2022-08-22T13:44:08.864Z,27.58
2022-08-22T13:46:48.189Z,27.38
2022-08-22T13:49:39.747Z,27.37
2022-08-22T13:52:32.774Z,27.49
2022-08-22T13:55:17.819Z,27.33
2022-08-22T13:57:53.507Z,27.35
2022-08-22T14:00:29.110Z,27.06
2022-08-22T14:03:08.048Z,27.10
2022-08-22T14:05:59.045Z,26.99
2022-08-22T14:08:45.960Z,26.80
2022-08-22T14:11:27.857Z,26.81
2022-08-22T14:14:01.104Z,26.82
2022-08-22T14:16:37.131Z,26.69
2022-08-22T14:19:27.237Z,26.65
2022-08-22T14:21:59.566Z,26.64
2022-08-22T14:24:38.760Z,26.63
2022-08-22T14:27:15.883Z,26.52
2022-08-22T14:30:03.819Z,26.45
2022-08-22T14:32:41.794Z,26.49
2022-08-22T14:35:34.625Z,26.42
2022-08-22T14:38:29.715Z,26.47
2022-08-22T14:41:07.771Z,26.46
2022-08-22T14:43:34.848Z,26.33
2022-08-22T14:46:12.479Z,26.33
2022-08-22T14:49:11.060Z,26.34
2022-08-22T14:51:46.372Z,26.21
2022-08-22T14:54:21.244Z,26.20
2022-08-22T14:56:52.018Z,26.21
2022-08-22T14:59:36.967Z,26.22
2022-08-22T15:02:17.437Z,26.21
2022-08-22T15:04:50.184Z,26.11
2022-08-22T15:07:27.826Z,26.15
2022-08-22T15:10:32.887Z,26.17
2022-08-22T15:13:03.212Z,26.17
2022-08-22T15:15:32.785Z,26.15
2022-08-22T15:18:28.067Z,26.17
2022-08-22T15:21:11.301Z,26.15
2022-08-22T15:23:44.984Z,26.09
2022-08-22T15:26:40.972Z,26.07
2022-08-22T15:29:20.564Z,25.99
2022-08-22T15:31:51.521Z,25.84
2022-08-22T15:34:41.729Z,25.90
2022-08-22T15:37:20.482Z,25.82
2022-08-22T15:40:13.485Z,25.76
2022-08-22T15:42:47.133Z,25.68
2022-08-22T15:45:37.247Z,25.77
2022-08-22T15:48:33.549Z,25.80
2022-08-22T15:51:01.740Z,25.74
2022-08-22T15:53:43.486Z,25.74
2022-08-22T15:56:13.006Z,25.76
2022-08-22T15:58:48.824Z,25.72
2022-08-22T16:01:22.142Z,25.66
2022-08-22T16:04:12.745Z,25.71
2022-08-22T16:06:56.578Z,25.65
2022-08-22T16:09:29.272Z,25.59
2022-08-22T16:11:58.267Z,25.58
2022-08-22T16:14:49.786Z,25.65
2022-08-22T16:17:28.373Z,25.64
2022-08-22T16:20:19.332Z,25.60
2022-08-22T16:22:58.561Z,25.55
2022-08-22T16:26:03.241Z,25.52
2022-08-22T16:29:08.038Z,25.47
2022-08-22T16:31:43.314Z,25.37
2022-08-22T16:34:21.473Z,25.36
2022-08-22T16:37:03.165Z,25.33
2022-08-22T16:39:44.008Z,25.34
2022-08-22T16:42:13.323Z,25.27
2022-08-22T16:45:10.538Z,25.23
2022-08-22T16:47:41.889Z,25.13
2022-08-22T16:50:22.216Z,25.15
2022-08-22T16:52:54.165Z,25.09
2022-08-22T16:55:29.836Z,25.10
2022-08-22T16:58:14.544Z,25.06
2022-08-22T17:00:57.877Z,24.99
2022-08-22T17:03:36.071Z,24.94
2022-08-22T17:06:14.705Z,24.87
2022-08-22T17:09:03.332Z,24.90
2022-08-22T17:11:51.889Z,24.89
2022-08-22T17:14:46.032Z,24.87
2022-08-22T17:17:32.932Z,24.78
2022-08-22T17:20:26.049Z,24.77
2022-08-22T17:22:58.067Z,24.67
2022-08-22T17:25:32.583Z,24.62
2022-08-22T17:28:18.778Z,24.58
2022-08-22T17:31:04.833Z,24.54
2022-08-22T17:33:40.471Z,24.52
2022-08-22T17:36:44.769Z,24.50
2022-08-22T17:39:11.314Z,24.42
2022-08-22T17:42:03.167Z,24.41
2022-08-22T17:44:45.598Z,24.37
2022-08-22T17:47:21.634Z,24.34
2022-08-22T17:49:59.909Z,24.30
2022-08-22T17:52:49.188Z,24.22
2022-08-22T17:55:26.682Z,24.14
2022-08-22T17:58:13.006Z,24.08
2022-08-22T18:01:11.193Z,24.05
2022-08-22T18:03:46.808Z,23.95
2022-08-22T18:06:24.102Z,23.88
2022-08-22T18:09:17.046Z,23.81
2022-08-22T18:11:51.941Z,23.72
2022-08-22T18:14:53.963Z,23.67
2022-08-22T18:17:30.289Z,23.60
2022-08-22T18:20:22.908Z,23.52
2022-08-22T18:22:55.389Z,23.43
2022-08-22T18:25:22.119Z,23.38
2022-08-22T18:28:23.303Z,23.33
2022-08-22T18:31:02.447Z,23.23
2022-08-22T18:33:34.513Z,23.15
2022-08-22T18:36:14.155Z,23.10
2022-08-22T18:38:48.632Z,23.02
2022-08-22T18:41:49.414Z,22.97
2022-08-22T18:44:28.424Z,22.90
2022-08-22T18:46:58.376Z,22.82
2022-08-22T18:49:24.728Z,22.76
2022-08-22T18:52:07.132Z,22.70
2022-08-22T18:54:49.572Z,22.63
2022-08-22T18:57:43.912Z,22.53
2022-08-22T19:00:16.626Z,22.43
2022-08-22T19:03:16.334Z,22.38
2022-08-22T19:06:30.404Z,22.29
2022-08-22T19:09:15.674Z,22.16
2022-08-22T19:12:11.683Z,22.04
2022-08-22T19:15:08.137Z,21.93
2022-08-22T19:17:55.798Z,21.80
2022-08-22T19:20:53.601Z,21.71
2022-08-22T19:23:31.881Z,21.61
2022-08-22T19:26:28.025Z,21.54
2022-08-22T19:29:29.140Z,21.42
2022-08-22T19:32:01.979Z,21.33
2022-08-22T19:34:32.566Z,21.25
2022-08-22T19:37:32.948Z,21.22
2022-08-22T19:40:42.043Z,21.12
2022-08-22T19:43:31.568Z,21.03
2022-08-22T19:46:00.718Z,20.91
2022-08-22T19:48:31.787Z,20.81
2022-08-22T19:51:13.106Z,20.73
2022-08-22T19:53:48.886Z,20.66
2022-08-22T19:56:31.041Z,20.54
2022-08-22T19:59:12.966Z,20.48
2022-08-22T20:01:57.966Z,20.42
2022-08-22T20:04:50.336Z,20.34
2022-08-22T20:07:43.605Z,20.27
2022-08-22T20:10:19.072Z,20.23
2022-08-22T20:13:10.260Z,20.15
2022-08-22T20:16:02.659Z,20.10
2022-08-22T20:18:53.703Z,20.03
2022-08-22T20:21:43.983Z,19.95
2022-08-22T20:24:27.552Z,19.86
2022-08-22T20:27:13.236Z,19.79
2022-08-22T20:29:46.535Z,19.76
2022-08-22T20:32:16.659Z,19.68
2022-08-22T20:34:44.889Z,19.60
2022-08-22T20:37:32.324Z,19.57
2022-08-22T20:40:10.117Z,19.55
2022-08-22T20:43:00.381Z,19.51
2022-08-22T20:45:29.552Z,19.49
2022-08-22T20:47:57.514Z,19.38
2022-08-22T20:50:26.147Z,19.30
2022-08-22T20:53:21.916Z,19.28
2022-08-22T20:55:54.826Z,19.22
2022-08-22T20:58:25.385Z,19.18
2022-08-22T21:00:56.281Z,19.15
2022-08-22T21:03:28.463Z,19.11
2022-08-22T21:05:55.039Z,19.06
2022-08-22T21:08:24.966Z,18.99
2022-08-22T21:11:18.087Z,18.97
2022-08-22T21:13:44.993Z,18.93
2022-08-22T21:16:15.519Z,18.92
2022-08-22T21:18:46.115Z,18.92
2022-08-22T21:21:28.165Z,18.93
2022-08-22T21:24:01.055Z,18.91
2022-08-22T21:26:50.548Z,18.87
2022-08-22T21:29:16.955Z,18.82
2022-08-22T21:31:50.049Z,18.82
2022-08-22T21:34:43.917Z,18.81
2022-08-22T21:37:45.387Z,18.76
2022-08-22T21:40:35.072Z,18.72
2022-08-22T21:43:08.882Z,18.69
2022-08-22T21:45:38.551Z,18.67
2022-08-22T21:48:35.229Z,18.67
2022-08-22T21:51:27.160Z,18.63
2022-08-22T21:54:18.463Z,18.62
2022-08-22T21:56:45.705Z,18.57
2022-08-22T21:59:25.045Z,18.54
2022-08-22T22:01:52.589Z,18.52
2022-08-22T22:04:22.547Z,18.49
2022-08-22T22:06:48.965Z,18.46
2022-08-22T22:09:18.124Z,18.44
2022-08-22T22:11:44.585Z,18.43
2022-08-22T22:14:11.041Z,18.40
2022-08-22T22:16:38.336Z,18.37
2022-08-22T22:19:07.434Z,18.36
2022-08-22T22:21:34.034Z,18.31
2022-08-22T22:24:00.461Z,18.26
2022-08-22T22:26:28.536Z,18.22
2022-08-22T22:28:55.049Z,18.20
2022-08-22T22:31:21.627Z,18.17
2022-08-22T22:33:48.366Z,18.16
2022-08-22T22:36:19.755Z,18.12
2022-08-22T22:38:46.677Z,18.09
2022-08-22T22:41:13.316Z,18.02
2022-08-22T22:43:39.821Z,17.98
2022-08-22T22:46:06.463Z,17.95
2022-08-22T22:48:33.261Z,17.93
2022-08-22T22:51:05.621Z,17.91
2022-08-22T22:53:40.362Z,17.94
2022-08-22T22:56:13.081Z,17.93
2022-08-22T22:58:40.423Z,17.95
2022-08-22T23:01:09.600Z,17.93
2022-08-22T23:03:36.157Z,17.91
2022-08-22T23:06:02.673Z,17.91
2022-08-22T23:08:29.121Z,17.90
2022-08-22T23:10:55.619Z,17.87
2022-08-22T23:13:22.047Z,17.82
2022-08-22T23:15:48.472Z,17.83
2022-08-22T23:18:14.882Z,17.82
2022-08-22T23:20:41.342Z,17.80
2022-08-22T23:23:07.793Z,17.75
2022-08-22T23:25:34.366Z,17.72
2022-08-22T23:28:00.985Z,17.72
2022-08-22T23:30:27.546Z,17.74
2022-08-22T23:32:55.586Z,17.71
2022-08-22T23:35:22.032Z,17.67
2022-08-22T23:37:48.480Z,17.66
2022-08-22T23:40:15.068Z,17.66
2022-08-22T23:42:41.945Z,17.61
2022-08-22T23:45:08.820Z,17.56
2022-08-22T23:47:35.247Z,17.55
2022-08-22T23:50:06.511Z,17.56
2022-08-22T23:52:33.316Z,17.54
2022-08-22T23:54:59.743Z,17.53
2022-08-22T23:57:27.342Z,17.47
2022-08-22T23:59:57.898Z,17.43
